createdAt,value
2019-06-01T00:01:55.983Z,12.60
2019-06-01T00:04:24.524Z,12.70
2019-06-01T00:06:53.091Z,12.80
2019-06-01T00:09:21.555Z,12.80
2019-06-01T00:11:50.087Z,12.80
2019-06-01T00:14:18.588Z,12.90
2019-06-01T00:16:48.020Z,12.90
2019-06-01T00:19:16.671Z,13.00
2019-06-01T00:21:45.452Z,13.00
2019-06-01T00:24:14.118Z,13.10
2019-06-01T00:26:43.696Z,13.10
2019-06-01T00:29:12.337Z,13.20
2019-06-01T00:31:41.199Z,13.20
2019-06-01T00:34:09.823Z,13.20
2019-06-01T00:36:38.339Z,13.30
2019-06-01T00:39:07.555Z,13.30
2019-06-01T00:41:36.141Z,13.20
2019-06-01T00:44:04.930Z,13.30
2019-06-01T00:46:33.389Z,13.30
2019-06-01T00:49:01.864Z,13.40
2019-06-01T00:51:30.385Z,13.40
2019-06-01T00:53:58.836Z,13.40
2019-06-01T00:56:27.303Z,13.40
2019-06-01T00:58:55.827Z,13.50
2019-06-01T01:01:24.434Z,13.50
2019-06-01T01:03:54.335Z,13.50
2019-06-01T01:06:23.053Z,13.50
2019-06-01T01:08:52.828Z,13.60
2019-06-01T01:11:21.579Z,13.60
2019-06-01T01:13:51.205Z,13.60
2019-06-01T01:16:19.908Z,13.70
2019-06-01T01:18:49.645Z,13.70
2019-06-01T01:21:18.335Z,13.70
2019-06-01T01:23:48.032Z,13.70
2019-06-01T01:26:16.788Z,13.70
2019-06-01T01:28:46.619Z,13.70
2019-06-01T01:31:15.302Z,13.70
2019-06-01T01:33:43.766Z,13.70
2019-06-01T01:36:12.351Z,13.70
2019-06-01T01:38:40.912Z,13.70
2019-06-01T01:41:09.378Z,13.70
2019-06-01T01:43:37.882Z,13.70
2019-06-01T01:46:06.560Z,13.80
2019-06-01T01:48:35.051Z,13.80
2019-06-01T01:51:03.632Z,13.80
2019-06-01T01:53:32.095Z,13.80
2019-06-01T01:56:01.196Z,13.80
2019-06-01T01:58:31.187Z,13.80
2019-06-01T02:01:00.326Z,13.80
2019-06-01T02:03:29.949Z,13.80
2019-06-01T02:05:59.110Z,13.80
2019-06-01T02:08:27.989Z,13.80
2019-06-01T02:10:57.479Z,13.80
2019-06-01T02:13:26.310Z,13.90
2019-06-01T02:15:56.066Z,13.90
2019-06-01T02:18:24.704Z,13.90
2019-06-01T02:20:54.391Z,13.90
2019-06-01T02:23:23.110Z,13.90
2019-06-01T02:25:52.798Z,13.90
2019-06-01T02:28:21.764Z,14.00
2019-06-01T02:30:50.295Z,14.00
2019-06-01T02:33:18.756Z,14.00
2019-06-01T02:35:47.337Z,14.00
2019-06-01T02:38:15.874Z,14.00
2019-06-01T02:40:44.576Z,14.00
2019-06-01T02:43:14.498Z,14.10
2019-06-01T02:45:43.021Z,14.00
2019-06-01T02:48:11.566Z,14.10
2019-06-01T02:50:40.259Z,14.10
2019-06-01T02:53:08.766Z,14.10
2019-06-01T02:55:37.304Z,14.20
2019-06-01T02:58:06.736Z,14.20
2019-06-01T03:00:47.567Z,14.20
2019-06-01T03:03:36.930Z,14.20
2019-06-01T03:06:07.708Z,14.20
2019-06-01T03:08:37.871Z,14.20
2019-06-01T03:11:07.989Z,14.20
2019-06-01T03:13:39.686Z,14.20
2019-06-01T03:16:10.524Z,14.20
2019-06-01T03:18:41.486Z,14.20
2019-06-01T03:21:13.162Z,14.20
2019-06-01T03:23:43.786Z,14.30
2019-06-01T03:26:15.395Z,14.20
2019-06-01T03:28:45.837Z,14.30
2019-06-01T03:31:15.198Z,14.30
2019-06-01T03:33:43.721Z,14.20
2019-06-01T03:36:13.145Z,14.30
2019-06-01T03:38:41.899Z,14.30
2019-06-01T03:41:10.434Z,14.20
2019-06-01T03:43:38.992Z,14.20
2019-06-01T03:46:08.658Z,14.30
2019-06-01T03:48:37.234Z,14.20
2019-06-01T03:51:05.789Z,14.30
2019-06-01T03:53:34.354Z,14.20
2019-06-01T03:56:03.232Z,14.20
2019-06-01T03:58:31.860Z,14.20
2019-06-01T04:01:00.912Z,14.30
2019-06-01T04:03:29.571Z,14.30
2019-06-01T04:05:58.049Z,14.30
2019-06-01T04:08:26.561Z,14.30
2019-06-01T04:10:55.015Z,14.30
2019-06-01T04:13:23.618Z,14.40
2019-06-01T04:15:52.236Z,14.40
2019-06-01T04:18:20.772Z,14.40
2019-06-01T04:20:49.255Z,14.40
2019-06-01T04:23:17.897Z,14.40
2019-06-01T04:25:46.440Z,14.40
2019-06-01T04:28:14.914Z,14.30
2019-06-01T04:30:43.648Z,14.30
2019-06-01T04:33:13.275Z,14.30
2019-06-01T04:35:41.879Z,14.30
2019-06-01T04:38:11.255Z,14.40
2019-06-01T04:40:39.754Z,14.40
2019-06-01T04:43:08.238Z,14.40
2019-06-01T04:45:37.050Z,14.50
2019-06-01T04:48:06.390Z,14.60
2019-06-01T04:50:35.431Z,14.60
2019-06-01T04:53:04.635Z,14.70
2019-06-01T04:55:33.398Z,14.70
2019-06-01T04:58:02.432Z,14.90
2019-06-01T05:00:31.268Z,15.00
2019-06-01T05:03:05.194Z,15.00
2019-06-01T05:05:30.689Z,15.00
2019-06-01T05:08:00.122Z,15.00
2019-06-01T05:10:28.992Z,15.00
2019-06-01T05:12:57.513Z,15.00
2019-06-01T05:15:26.392Z,15.00
2019-06-01T05:17:55.272Z,15.20
2019-06-01T05:20:23.812Z,15.10
2019-06-01T05:22:52.414Z,15.20
2019-06-01T05:25:20.890Z,15.30
2019-06-01T05:27:49.430Z,15.30
2019-06-01T05:30:18.202Z,15.20
2019-06-01T05:32:46.862Z,15.30
2019-06-01T05:35:16.321Z,15.40
2019-06-01T05:37:44.829Z,15.50
2019-06-01T05:40:14.648Z,15.60
2019-06-01T05:42:43.355Z,15.80
2019-06-01T05:45:13.007Z,15.90
2019-06-01T05:47:41.957Z,15.90
2019-06-01T05:50:10.881Z,15.90
2019-06-01T05:52:39.469Z,15.90
2019-06-01T05:55:08.636Z,15.70
2019-06-01T05:57:37.448Z,15.60
2019-06-01T06:00:10.880Z,15.70
2019-06-01T06:02:39.600Z,15.70
2019-06-01T06:05:08.695Z,15.70
2019-06-01T06:07:37.737Z,15.70
2019-06-01T06:10:07.145Z,15.60
2019-06-01T06:12:35.855Z,15.60
2019-06-01T06:15:08.711Z,15.50
2019-06-01T06:17:37.176Z,15.50
2019-06-01T06:20:06.529Z,15.50
2019-06-01T06:22:35.119Z,15.50
2019-06-01T06:25:04.917Z,15.50
2019-06-01T06:27:33.464Z,15.50
2019-06-01T06:30:02.122Z,15.40
2019-06-01T06:32:30.580Z,15.40
2019-06-01T06:34:59.113Z,15.50
2019-06-01T06:37:27.650Z,15.50
2019-06-01T06:39:56.178Z,15.60
2019-06-01T06:42:24.704Z,15.50
2019-06-01T06:44:53.219Z,15.50
2019-06-01T06:47:23.022Z,15.60
2019-06-01T06:49:51.629Z,15.60
2019-06-01T06:52:21.474Z,15.60
2019-06-01T06:54:50.473Z,15.60
2019-06-01T06:57:20.171Z,15.60
2019-06-01T06:59:48.945Z,15.70
2019-06-01T07:02:18.675Z,15.80
2019-06-01T07:04:47.349Z,15.80
2019-06-01T07:07:17.473Z,15.90
2019-06-01T07:09:46.300Z,15.90
2019-06-01T07:12:14.935Z,15.80
2019-06-01T07:14:43.611Z,15.80
2019-06-01T07:17:15.574Z,15.70
2019-06-01T07:19:42.324Z,15.80
2019-06-01T07:22:10.911Z,15.80
2019-06-01T07:24:39.533Z,15.80
2019-06-01T07:27:08.275Z,15.80
2019-06-01T07:29:36.877Z,15.90
2019-06-01T07:32:05.643Z,15.80
2019-06-01T07:34:41.885Z,15.80
2019-06-01T07:37:04.555Z,15.90
2019-06-01T07:39:33.552Z,15.80
2019-06-01T07:42:05.578Z,15.80
2019-06-01T07:44:34.435Z,15.80
2019-06-01T07:47:02.973Z,15.80
2019-06-01T07:49:31.754Z,15.90
2019-06-01T07:52:12.086Z,15.90
2019-06-01T07:54:30.883Z,15.90
2019-06-01T07:56:59.414Z,15.90
2019-06-01T07:59:28.452Z,15.90
2019-06-01T08:01:57.577Z,15.90
2019-06-01T08:04:28.088Z,16.00
2019-06-01T08:06:56.938Z,16.00
2019-06-01T08:09:26.522Z,16.00
2019-06-01T08:11:55.739Z,16.10
2019-06-01T08:14:24.556Z,16.00
2019-06-01T08:16:53.223Z,16.10
2019-06-01T08:19:22.064Z,16.30
2019-06-01T08:21:50.775Z,16.50
2019-06-01T08:24:19.586Z,16.50
2019-06-01T08:26:48.523Z,16.50
2019-06-01T08:29:17.486Z,16.80
2019-06-01T08:31:46.165Z,16.80
2019-06-01T08:34:14.682Z,17.00
2019-06-01T08:36:43.404Z,17.10
2019-06-01T08:39:11.861Z,17.00
2019-06-01T08:41:40.482Z,16.90
2019-06-01T08:44:09.498Z,16.90
2019-06-01T08:46:38.249Z,16.90
2019-06-01T08:49:06.768Z,17.00
2019-06-01T08:51:35.431Z,16.90
2019-06-01T08:54:04.514Z,17.00
2019-06-01T08:56:34.477Z,17.00
2019-06-01T08:59:03.237Z,17.00
2019-06-01T09:01:32.793Z,17.30
2019-06-01T09:04:01.374Z,17.40
2019-06-01T09:06:30.963Z,17.50
2019-06-01T09:08:59.788Z,17.70
2019-06-01T09:11:29.230Z,17.90
2019-06-01T09:13:58.112Z,17.70
2019-06-01T09:16:27.809Z,17.60
2019-06-01T09:18:56.447Z,17.60
2019-06-01T09:21:25.384Z,17.70
2019-06-01T09:23:54.226Z,17.70
2019-06-01T09:26:22.700Z,17.90
2019-06-01T09:28:51.198Z,17.90
2019-06-01T09:31:19.670Z,17.80
2019-06-01T09:33:48.213Z,17.70
2019-06-01T09:36:17.060Z,17.80
2019-06-01T09:38:45.712Z,17.80
2019-06-01T09:41:14.400Z,17.90
2019-06-01T09:43:43.197Z,17.90
2019-06-01T09:46:11.742Z,17.90
2019-06-01T09:48:40.292Z,17.90
2019-06-01T09:51:08.889Z,17.80
2019-06-01T09:53:38.110Z,18.10
2019-06-01T09:56:07.115Z,18.10
2019-06-01T09:58:36.878Z,18.20
2019-06-01T10:01:05.766Z,18.40
2019-06-01T10:03:34.581Z,18.50
2019-06-01T10:06:03.245Z,18.60
2019-06-01T10:08:32.594Z,18.70
2019-06-01T10:11:01.592Z,18.70
2019-06-01T10:13:30.514Z,18.60
2019-06-01T10:15:59.155Z,18.70
2019-06-01T10:18:27.814Z,18.90
2019-06-01T10:20:56.601Z,18.60
2019-06-01T10:23:25.120Z,18.90
2019-06-01T10:25:53.575Z,19.00
2019-06-01T10:28:22.735Z,19.00
2019-06-01T10:30:51.219Z,18.90
2019-06-01T10:33:19.742Z,18.90
2019-06-01T10:35:48.611Z,19.00
2019-06-01T10:38:17.155Z,19.00
2019-06-01T10:40:45.682Z,19.20
2019-06-01T10:43:14.265Z,19.30
2019-06-01T10:45:43.157Z,19.20
2019-06-01T10:48:11.761Z,19.40
2019-06-01T10:50:40.652Z,19.50
2019-06-01T10:53:09.288Z,19.50
2019-06-01T10:55:38.441Z,19.40
2019-06-01T10:58:08.471Z,19.50
2019-06-01T11:00:43.320Z,19.30
2019-06-01T11:03:07.206Z,19.00
2019-06-01T11:05:36.742Z,19.30
2019-06-01T11:08:05.587Z,19.30
2019-06-01T11:10:34.839Z,19.20
2019-06-01T11:13:03.792Z,19.50
2019-06-01T11:15:32.898Z,19.50
2019-06-01T11:18:01.772Z,19.30
2019-06-01T11:20:30.466Z,19.20
2019-06-01T11:22:59.005Z,19.20
2019-06-01T11:25:27.586Z,19.10
2019-06-01T11:27:56.175Z,19.20
2019-06-01T11:30:24.891Z,18.90
2019-06-01T11:32:53.533Z,18.90
2019-06-01T11:35:22.126Z,18.90
2019-06-01T11:37:50.620Z,19.20
2019-06-01T11:40:19.092Z,19.30
2019-06-01T11:42:47.660Z,19.00
2019-06-01T11:45:19.354Z,19.30
2019-06-01T11:47:47.810Z,19.20
2019-06-01T11:50:16.457Z,19.20
2019-06-01T11:52:45.515Z,18.90
2019-06-01T11:55:14.503Z,18.80
2019-06-01T11:57:43.500Z,18.70
2019-06-01T12:00:13.772Z,18.80
2019-06-01T12:02:43.719Z,18.80
2019-06-01T12:05:12.946Z,18.80
2019-06-01T12:07:41.946Z,18.90
2019-06-01T12:10:11.176Z,18.70
2019-06-01T12:12:40.173Z,18.60
2019-06-01T12:15:09.488Z,18.50
2019-06-01T12:17:38.718Z,18.40
2019-06-01T12:20:08.475Z,18.40
2019-06-01T12:22:37.024Z,18.40
2019-06-01T12:25:06.350Z,18.60
2019-06-01T12:27:34.877Z,18.70
2019-06-01T12:30:05.333Z,18.70
2019-06-01T12:32:33.846Z,18.80
2019-06-01T12:35:03.504Z,18.60
2019-06-01T12:37:52.401Z,18.60
2019-06-01T12:40:02.888Z,18.90
2019-06-01T12:42:31.345Z,19.00
2019-06-01T12:44:59.811Z,19.10
2019-06-01T12:47:28.721Z,18.80
2019-06-01T12:49:57.271Z,18.90
2019-06-01T12:52:25.825Z,19.00
2019-06-01T12:54:54.448Z,19.20
2019-06-01T12:57:22.989Z,19.40
2019-06-01T12:59:53.125Z,19.40
2019-06-01T13:02:21.933Z,19.70
2019-06-01T13:04:50.601Z,20.00
2019-06-01T13:07:20.478Z,20.10
2019-06-01T13:09:49.146Z,19.80
2019-06-01T13:12:18.856Z,19.60
2019-06-01T13:14:47.313Z,19.50
2019-06-01T13:17:15.969Z,19.90
2019-06-01T13:19:45.272Z,19.90
2019-06-01T13:22:13.961Z,19.50
2019-06-01T13:24:43.679Z,19.20
2019-06-01T13:27:12.376Z,19.30
2019-06-01T13:29:41.689Z,19.30
2019-06-01T13:32:10.383Z,19.40
2019-06-01T13:34:38.917Z,19.40
2019-06-01T13:37:07.688Z,19.30
2019-06-01T13:39:36.269Z,19.20
2019-06-01T13:42:04.915Z,19.30
2019-06-01T13:44:33.430Z,19.60
2019-06-01T13:47:02.083Z,19.50
2019-06-01T13:49:30.612Z,19.60
2019-06-01T13:51:59.373Z,19.70
2019-06-01T13:54:27.872Z,19.60
2019-06-01T13:56:56.359Z,19.60
2019-06-01T13:59:24.889Z,19.50
2019-06-01T14:01:53.387Z,19.50
2019-06-01T14:04:22.009Z,19.60
2019-06-01T14:06:51.156Z,19.80
2019-06-01T14:09:22.051Z,19.70
2019-06-01T14:11:51.509Z,19.90
2019-06-01T14:14:20.289Z,19.60
2019-06-01T14:16:49.485Z,19.60
2019-06-01T14:19:18.378Z,19.60
2019-06-01T14:21:47.790Z,19.50
2019-06-01T14:24:16.666Z,19.40
2019-06-01T14:26:46.010Z,19.20
2019-06-01T14:29:14.768Z,19.70
2019-06-01T14:31:43.738Z,20.10
2019-06-01T14:34:12.250Z,20.70
2019-06-01T14:36:40.754Z,20.60
2019-06-01T14:39:09.417Z,21.20
2019-06-01T14:41:38.027Z,21.10
2019-06-01T14:44:06.635Z,20.60
2019-06-01T14:46:50.286Z,21.10
2019-06-01T14:49:05.457Z,21.00
2019-06-01T14:51:34.168Z,20.90
2019-06-01T14:54:02.826Z,20.80
2019-06-01T14:56:31.611Z,21.70
2019-06-01T14:59:02.156Z,22.20
2019-06-01T15:01:32.929Z,22.10
2019-06-01T15:04:01.288Z,22.40
2019-06-01T15:06:29.800Z,21.80
2019-06-01T15:09:17.209Z,21.50
2019-06-01T15:11:28.632Z,21.10
2019-06-01T15:13:58.519Z,20.80
2019-06-01T15:16:27.411Z,20.20
2019-06-01T15:18:56.152Z,20.00
2019-06-01T15:21:24.676Z,19.60
2019-06-01T15:23:53.868Z,19.70
2019-06-01T15:26:22.514Z,19.60
2019-06-01T15:28:51.312Z,19.50
2019-06-01T15:31:23.187Z,19.50
2019-06-01T15:33:51.642Z,19.40
2019-06-01T15:36:20.286Z,19.70
2019-06-01T15:38:49.022Z,19.50
2019-06-01T15:41:17.666Z,20.40
2019-06-01T15:43:46.162Z,21.00
2019-06-01T15:46:14.826Z,21.60
2019-06-01T15:48:43.363Z,22.00
2019-06-01T15:51:12.502Z,22.50
2019-06-01T15:53:41.115Z,23.10
2019-06-01T15:56:09.749Z,23.70
2019-06-01T15:58:51.735Z,24.10
2019-06-01T16:01:10.282Z,24.20
2019-06-01T16:03:38.833Z,23.90
2019-06-01T16:06:07.366Z,24.00
2019-06-01T16:08:35.911Z,23.60
2019-06-01T16:11:06.386Z,23.60
2019-06-01T16:13:34.805Z,23.60
2019-06-01T16:16:03.944Z,23.40
2019-06-01T16:18:33.798Z,23.50
2019-06-01T16:21:02.406Z,22.90
2019-06-01T16:23:46.169Z,22.10
2019-06-01T16:26:10.874Z,21.60
2019-06-01T16:28:31.367Z,21.10
2019-06-01T16:31:00.576Z,20.60
2019-06-01T16:33:29.117Z,20.50
2019-06-01T16:35:58.833Z,20.20
2019-06-01T16:38:27.475Z,20.20
2019-06-01T16:40:57.030Z,20.10
2019-06-01T16:43:25.738Z,19.70
2019-06-01T16:45:55.503Z,19.30
2019-06-01T16:48:24.284Z,18.80
2019-06-01T16:50:52.892Z,18.60
2019-06-01T16:53:22.241Z,18.50
2019-06-01T16:55:50.703Z,18.70
2019-06-01T16:58:19.271Z,18.60
2019-06-01T17:00:48.017Z,18.30
2019-06-01T17:03:16.642Z,18.10
2019-06-01T17:05:45.146Z,18.10
2019-06-01T17:08:14.070Z,18.10
2019-06-01T17:10:42.648Z,18.10
2019-06-01T17:13:11.333Z,18.10
2019-06-01T17:15:40.089Z,18.00
2019-06-01T17:18:10.461Z,18.00
2019-06-01T17:20:48.060Z,17.70
2019-06-01T17:23:27.374Z,17.40
2019-06-01T17:25:48.338Z,17.50
2019-06-01T17:28:17.163Z,17.30
2019-06-01T17:30:45.964Z,17.10
2019-06-01T17:33:14.424Z,17.00
2019-06-01T17:35:43.014Z,16.90
2019-06-01T17:38:12.678Z,16.80
2019-06-01T17:40:43.226Z,16.60
2019-06-01T17:43:12.833Z,16.40
2019-06-01T17:45:42.008Z,16.30
2019-06-01T17:48:25.760Z,16.30
2019-06-01T17:50:41.285Z,16.20
2019-06-01T17:53:10.322Z,16.20
2019-06-01T17:55:39.665Z,16.10
2019-06-01T17:58:10.044Z,16.00
2019-06-01T18:00:39.833Z,16.00
2019-06-01T18:03:09.695Z,16.00
2019-06-01T18:05:38.908Z,15.90
2019-06-01T18:08:08.122Z,16.00
2019-06-01T18:10:52.589Z,15.90
2019-06-01T18:13:08.648Z,15.90
2019-06-01T18:15:37.584Z,15.80
2019-06-01T18:18:06.693Z,15.70
2019-06-01T18:20:35.829Z,15.70
2019-06-01T18:23:07.160Z,15.60
2019-06-01T18:25:35.339Z,15.60
2019-06-01T18:28:04.541Z,15.60
2019-06-01T18:30:33.584Z,15.60
2019-06-01T18:33:02.997Z,15.50
2019-06-01T18:35:32.646Z,15.30
2019-06-01T18:38:01.341Z,15.40
2019-06-01T18:40:30.107Z,15.40
2019-06-01T18:43:06.051Z,15.50
2019-06-01T18:45:35.526Z,15.50
2019-06-01T18:48:05.954Z,15.60
2019-06-01T18:50:35.068Z,15.70
2019-06-01T18:53:03.971Z,15.70
2019-06-01T18:55:35.529Z,15.60
2019-06-01T18:58:03.964Z,15.60
2019-06-01T19:00:32.798Z,15.40
2019-06-01T19:03:01.420Z,15.30
2019-06-01T19:05:30.014Z,15.20
2019-06-01T19:07:58.528Z,15.00
2019-06-01T19:10:27.214Z,14.90
2019-06-01T19:12:55.824Z,14.80
2019-06-01T19:15:28.655Z,14.70
2019-06-01T19:17:54.809Z,14.50
2019-06-01T19:20:23.356Z,14.40
2019-06-01T19:22:52.231Z,14.30
2019-06-01T19:25:24.120Z,14.30
2019-06-01T19:27:52.739Z,14.20
2019-06-01T19:30:39.102Z,14.10
2019-06-01T19:33:10.948Z,14.10
2019-06-01T19:35:39.572Z,13.90
2019-06-01T19:38:09.112Z,13.80
2019-06-01T19:40:39.338Z,13.80
2019-06-01T19:43:09.431Z,13.80
2019-06-01T19:45:38.549Z,13.80
2019-06-01T19:48:08.239Z,13.70
2019-06-01T19:50:37.264Z,13.60
2019-06-01T19:53:06.113Z,13.60
2019-06-01T19:55:35.101Z,13.50
2019-06-01T19:58:04.073Z,13.40
2019-06-01T20:00:32.656Z,13.40
2019-06-01T20:03:01.107Z,13.40
2019-06-01T20:05:29.885Z,13.30
2019-06-01T20:07:59.010Z,13.30
2019-06-01T20:10:27.555Z,13.20
2019-06-01T20:12:56.022Z,13.20
2019-06-01T20:15:25.009Z,13.10
2019-06-01T20:17:53.492Z,13.10
2019-06-01T20:20:23.132Z,13.00
2019-06-01T20:22:51.792Z,13.00
2019-06-01T20:25:21.541Z,13.00
2019-06-01T20:27:50.429Z,12.90
2019-06-01T20:30:19.925Z,12.90
2019-06-01T20:32:48.679Z,12.80
2019-06-01T20:35:18.060Z,12.80
2019-06-01T20:37:46.851Z,12.70
2019-06-01T20:40:16.246Z,12.70
2019-06-01T20:42:44.870Z,12.70
2019-06-01T20:45:14.577Z,12.70
2019-06-01T20:47:43.230Z,12.70
2019-06-01T20:50:12.656Z,12.60
2019-06-01T20:52:41.384Z,12.60
2019-06-01T20:55:10.154Z,12.60
2019-06-01T20:57:38.635Z,12.60
2019-06-01T21:00:08.952Z,12.60
2019-06-01T21:02:37.615Z,12.60
2019-06-01T21:05:07.729Z,12.50
2019-06-01T21:07:36.384Z,12.50
2019-06-01T21:10:09.862Z,12.50
2019-06-01T21:12:46.210Z,12.50
2019-06-01T21:15:09.488Z,12.50
2019-06-01T21:17:38.165Z,12.40
2019-06-01T21:20:10.471Z,12.40
2019-06-01T21:22:39.498Z,12.40
2019-06-01T21:25:08.193Z,12.30
2019-06-01T21:27:36.727Z,12.30
2019-06-01T21:30:09.346Z,12.30
2019-06-01T21:32:37.894Z,12.30
2019-06-01T21:35:07.113Z,12.30
2019-06-01T21:37:35.725Z,12.20
2019-06-01T21:40:06.841Z,12.20
2019-06-01T21:42:38.450Z,12.20
2019-06-01T21:45:07.770Z,12.20
2019-06-01T21:47:36.362Z,12.20
2019-06-01T21:50:06.469Z,12.20
2019-06-01T21:52:35.111Z,12.20
2019-06-01T21:55:05.511Z,12.20
2019-06-01T21:57:33.996Z,12.20
2019-06-01T22:00:02.890Z,12.20
2019-06-01T22:02:31.501Z,12.20
2019-06-01T22:05:00.037Z,12.10
2019-06-01T22:07:28.610Z,12.10
2019-06-01T22:09:57.150Z,12.10
2019-06-01T22:12:25.809Z,12.10
2019-06-01T22:14:54.504Z,12.10
2019-06-01T22:17:26.070Z,12.10
2019-06-01T22:19:54.569Z,12.10
2019-06-01T22:22:23.828Z,12.10
2019-06-01T22:24:52.438Z,12.00
2019-06-01T22:27:22.102Z,12.10
2019-06-01T22:29:51.000Z,12.10
2019-06-01T22:32:23.085Z,12.10
2019-06-01T22:34:49.741Z,12.20
2019-06-01T22:37:19.690Z,12.20
2019-06-01T22:39:48.321Z,12.20
2019-06-01T22:42:16.827Z,12.20
2019-06-01T22:44:45.366Z,12.20
2019-06-01T22:47:13.844Z,12.20
2019-06-01T22:49:42.380Z,12.10
2019-06-01T22:52:10.909Z,12.10
2019-06-01T22:54:39.387Z,12.10
2019-06-01T22:57:07.916Z,12.00
2019-06-01T22:59:36.509Z,12.00
2019-06-01T23:02:05.198Z,12.00
2019-06-01T23:04:33.664Z,12.00
2019-06-01T23:07:02.247Z,11.90
2019-06-01T23:09:31.670Z,11.90
2019-06-01T23:12:00.280Z,11.90
2019-06-01T23:14:29.470Z,11.90
2019-06-01T23:16:58.117Z,11.80
2019-06-01T23:19:27.921Z,11.80
2019-06-01T23:21:56.628Z,11.80
2019-06-01T23:24:26.110Z,11.80
2019-06-01T23:26:54.731Z,11.80
2019-06-01T23:29:26.070Z,11.80
2019-06-01T23:31:54.728Z,11.70
2019-06-01T23:34:24.865Z,11.70
2019-06-01T23:36:53.646Z,11.60
2019-06-01T23:39:22.708Z,11.60
2019-06-01T23:41:51.348Z,11.60
2019-06-01T23:44:19.876Z,11.60
2019-06-01T23:46:48.420Z,11.50
2019-06-01T23:49:17.023Z,11.50
2019-06-01T23:51:45.528Z,11.50
2019-06-01T23:54:14.078Z,11.50
2019-06-01T23:56:42.584Z,11.50
2019-06-01T23:59:12.778Z,11.50
